Language: 


Des rapports , des résumés tant et plus, au choix de chacun....


Données statistiques de la station
Quotidien Rapport Janvier 7, 2018 Unités:  les deux    Anglais   Métrique
« Précédent Jour
Suivant Jour »
Quotidien Hebdomadaire Mensuel Annuel Actuel
  Haut: Bas: Moyen:
Température: TemperatureC °F /  -17.8 °C 2.0 °F /  -16.7 °C 3.4 °F /  -15.9 °C
Pt de rosée: DewpointC °F /  -17.8 °C 0.0 °F /  -17.8 °C 2.1 °F /  -16.6 °C
Humidité: Humidity % 83 % 89 %
Vitesse du vent: WindSpeedKMH mph /  0 km/h - 19.5 mph /  31.4 km/h
Rafales: WindSpeedGustKMH mph /  0 km/h - -
Vent:- - NE
Pression: PressurehPa in /  0 hPa 1015.1 in /  34371.3 hPa -
Précipitation: 0.0 in /  0 mm    
Historical Graphs
 
 
Données statistiques pour Janvier 7, 2018
Heure Température Point de rosée Pression Vent Vitesse du vent Refales Humidité Pluie (taux horaire)
TemperatureC °F /  -17.8 °C DewpointC °F /  -17.8 °C PressurehPa in /  0 hPa Calm     Humidity % HourlyPrecipMM in /  0 mm
00:02 5.6 °F /  -14.7 °C 5.0 °F /  -15 °C 1015.1 in /  34371.3 hPa NNE 13.7 mph /  22 km/h 23.3 mph /  37.5 km/h 93 % 0.0 in /  0 mm
00:07 5.6 °F /  -14.7 °C 5.0 °F /  -15 °C 1015.1 in /  34371.3 hPa NE 16.6 mph /  26.7 km/h 25.3 mph /  40.7 km/h 93 % 0.0 in /  0 mm
00:11 5.6 °F /  -14.7 °C 5.0 °F /  -15 °C 1015.1 in /  34371.3 hPa ENE 12.2 mph /  19.6 km/h 25.3 mph /  40.7 km/h 92 % 0.0 in /  0 mm
00:16 5.6 °F /  -14.7 °C 5.0 °F /  -15 °C 1015.1 in /  34371.3 hPa NE 16.6 mph /  26.7 km/h 23.0 mph /  37 km/h 92 % 0.0 in /  0 mm
00:23 5.5 °F /  -14.7 °C 5.0 °F /  -15 °C 1015.1 in /  34371.3 hPa NNE 15.4 mph /  24.8 km/h 23.0 mph /  37 km/h 92 % 0.0 in /  0 mm
00:28 5.5 °F /  -14.7 °C 5.0 °F /  -15 °C 1016.1 in /  34405.1 hPa NNE 15.4 mph /  24.8 km/h 20.9 mph /  33.6 km/h 91 % 0.0 in /  0 mm
00:32 5.4 °F /  -14.8 °C 4.0 °F /  -15.6 °C 1016.1 in /  34405.1 hPa NE 15.4 mph /  24.8 km/h 24.8 mph /  39.9 km/h 91 % 0.0 in /  0 mm
00:33 5.4 °F /  -14.8 °C 4.0 °F /  -15.6 °C 1016.1 in /  34405.1 hPa NNE 16.9 mph /  27.2 km/h 24.8 mph /  39.9 km/h 91 % 0.0 in /  0 mm
00:38 5.4 °F /  -14.8 °C 4.0 °F /  -15.6 °C 1016.1 in /  34405.1 hPa NE 17.2 mph /  27.7 km/h 25.3 mph /  40.7 km/h 91 % 0.0 in /  0 mm
00:40 5.4 °F /  -14.8 °C 4.0 °F /  -15.6 °C 1016.1 in /  34405.1 hPa NE 20.9 mph /  33.6 km/h 25.3 mph /  40.7 km/h 91 % 0.0 in /  0 mm
00:45 5.4 °F /  -14.8 °C 4.0 °F /  -15.6 °C 1016.1 in /  34405.1 hPa NNE 16.3 mph /  26.2 km/h 24.8 mph /  39.9 km/h 91 % 0.0 in /  0 mm
00:50 5.4 °F /  -14.8 °C 4.0 °F /  -15.6 °C 1016.1 in /  34405.1 hPa NNE 15.1 mph /  24.3 km/h 25.3 mph /  40.7 km/h 91 % 0.0 in /  0 mm
00:55 5.3 °F /  -14.8 °C 4.0 °F /  -15.6 °C 1016.1 in /  34405.1 hPa North 16.3 mph /  26.2 km/h 27.7 mph /  44.6 km/h 91 % 0.0 in /  0 mm
00:56 5.3 °F /  -14.8 °C 4.0 °F /  -15.6 °C 1016.1 in /  34405.1 hPa NE 19.8 mph /  31.9 km/h 27.7 mph /  44.6 km/h 91 % 0.0 in /  0 mm
00:58 5.3 °F /  -14.8 °C 4.0 °F /  -15.6 °C 1016.1 in /  34405.1 hPa NE 28.5 mph /  45.9 km/h 28.5 mph /  45.9 km/h 91 % 0.0 in /  0 mm
01:04 5.3 °F /  -14.8 °C 4.0 °F /  -15.6 °C 1016.1 in /  34405.1 hPa NNE 23.3 mph /  37.5 km/h 28.5 mph /  45.9 km/h 91 % 0.0 in /  0 mm
01:09 5.3 °F /  -14.8 °C 4.0 °F /  -15.6 °C 1016.1 in /  34405.1 hPa NE 14.8 mph /  23.8 km/h 33.5 mph /  53.9 km/h 91 % 0.0 in /  0 mm
01:14 5.3 °F /  -14.8 °C 4.0 °F /  -15.6 °C 1016.1 in /  34405.1 hPa NE 16.9 mph /  27.2 km/h 33.5 mph /  53.9 km/h 92 % 0.0 in /  0 mm
01:19 5.3 °F /  -14.8 °C 4.0 °F /  -15.6 °C 1016.1 in /  34405.1 hPa NE 10.5 mph /  16.9 km/h 25.6 mph /  41.2 km/h 92 % 0.0 in /  0 mm
01:22 5.2 °F /  -14.9 °C 4.0 °F /  -15.6 °C 1016.1 in /  34405.1 hPa NE 17.2 mph /  27.7 km/h 26.2 mph /  42.2 km/h 92 % 0.0 in /  0 mm
01:27 5.2 °F /  -14.9 °C 4.0 °F /  -15.6 °C 1016.1 in /  34405.1 hPa NNE 15.8 mph /  25.4 km/h 26.2 mph /  42.2 km/h 92 % 0.0 in /  0 mm
01:29 5.2 °F /  -14.9 °C 4.0 °F /  -15.6 °C 1016.1 in /  34405.1 hPa NE 15.8 mph /  25.4 km/h 26.2 mph /  42.2 km/h 92 % 0.0 in /  0 mm
01:34 5.2 °F /  -14.9 °C 4.0 °F /  -15.6 °C 1016.1 in /  34405.1 hPa NNE 21.2 mph /  34.1 km/h 28.0 mph /  45.1 km/h 92 % 0.0 in /  0 mm
01:37 5.1 °F /  -14.9 °C 4.0 °F /  -15.6 °C 1016.1 in /  34405.1 hPa NE 24.5 mph /  39.4 km/h 28.0 mph /  45.1 km/h 92 % 0.0 in /  0 mm
01:40 5.1 °F /  -14.9 °C 4.0 °F /  -15.6 °C 1016.1 in /  34405.1 hPa NE 28.8 mph /  46.3 km/h 28.8 mph /  46.3 km/h 91 % 0.0 in /  0 mm
01:45 5.1 °F /  -14.9 °C 4.0 °F /  -15.6 °C 1016.1 in /  34405.1 hPa NNE 23.3 mph /  37.5 km/h 28.8 mph /  46.3 km/h 90 % 0.0 in /  0 mm
01:47 5.1 °F /  -14.9 °C 4.0 °F /  -15.6 °C 1016.1 in /  34405.1 hPa NNE 18.0 mph /  29 km/h 28.8 mph /  46.3 km/h 89 % 0.0 in /  0 mm
01:53 5.0 °F /  -15 °C 3.0 °F /  -16.1 °C 1016.1 in /  34405.1 hPa NE 24.5 mph /  39.4 km/h 26.7 mph /  43 km/h 88 % 0.0 in /  0 mm
01:58 5.0 °F /  -15 °C 3.0 °F /  -16.1 °C 1016.8 in /  34428.8 hPa NNE 19.8 mph /  31.9 km/h 27.0 mph /  43.5 km/h 88 % 0.0 in /  0 mm
02:03 4.9 °F /  -15.1 °C 3.0 °F /  -16.1 °C 1016.8 in /  34428.8 hPa NE 19.8 mph /  31.9 km/h 28.0 mph /  45.1 km/h 88 % 0.0 in /  0 mm
02:08 4.9 °F /  -15.1 °C 3.0 °F /  -16.1 °C 1016.8 in /  34428.8 hPa NE 15.8 mph /  25.4 km/h 28.0 mph /  45.1 km/h 88 % 0.0 in /  0 mm
02:13 4.8 °F /  -15.1 °C 3.0 °F /  -16.1 °C 1016.8 in /  34428.8 hPa NNE 17.2 mph /  27.7 km/h 28.5 mph /  45.9 km/h 87 % 0.0 in /  0 mm
02:18 4.8 °F /  -15.1 °C 3.0 °F /  -16.1 °C 1016.8 in /  34428.8 hPa NNE 15.4 mph /  24.8 km/h 28.5 mph /  45.9 km/h 86 % 0.0 in /  0 mm
02:23 4.7 °F /  -15.2 °C 3.0 °F /  -16.1 °C 1016.8 in /  34428.8 hPa NNE 17.7 mph /  28.5 km/h 28.0 mph /  45.1 km/h 87 % 0.0 in /  0 mm
02:28 4.7 °F /  -15.2 °C 3.0 °F /  -16.1 °C 1016.8 in /  34428.8 hPa NE 20.1 mph /  32.3 km/h 28.0 mph /  45.1 km/h 87 % 0.0 in /  0 mm
02:30 4.7 °F /  -15.2 °C 3.0 °F /  -16.1 °C 1016.8 in /  34428.8 hPa NNE 14.0 mph /  22.5 km/h 28.0 mph /  45.1 km/h 87 % 0.0 in /  0 mm
02:35 4.6 °F /  -15.2 °C 3.0 °F /  -16.1 °C 1016.8 in /  34428.8 hPa NE 16.9 mph /  27.2 km/h 28.5 mph /  45.9 km/h 87 % 0.0 in /  0 mm
02:40 4.5 °F /  -15.3 °C 3.0 °F /  -16.1 °C 1016.8 in /  34428.8 hPa NE 15.8 mph /  25.4 km/h 28.5 mph /  45.9 km/h 87 % 0.0 in /  0 mm
02:51 4.3 °F /  -15.4 °C 3.0 °F /  -16.1 °C 1016.8 in /  34428.8 hPa NNE 20.6 mph /  33.2 km/h 25.9 mph /  41.7 km/h 88 % 0.0 in /  0 mm
02:57 4.3 °F /  -15.4 °C 3.0 °F /  -16.1 °C 1016.8 in /  34428.8 hPa NE 12.6 mph /  20.3 km/h 27.4 mph /  44.1 km/h 88 % 0.0 in /  0 mm
03:02 4.2 °F /  -15.4 °C 3.0 °F /  -16.1 °C 1016.8 in /  34428.8 hPa NE 19.8 mph /  31.9 km/h 27.4 mph /  44.1 km/h 88 % 0.0 in /  0 mm
03:07 4.2 °F /  -15.4 °C 3.0 °F /  -16.1 °C 1016.8 in /  34428.8 hPa NE 23.3 mph /  37.5 km/h 25.3 mph /  40.7 km/h 89 % 0.0 in /  0 mm
03:12 4.1 °F /  -15.5 °C 3.0 °F /  -16.1 °C 1016.8 in /  34428.8 hPa NE 23.8 mph /  38.3 km/h 28.5 mph /  45.9 km/h 90 % 0.0 in /  0 mm
03:17 4.1 °F /  -15.5 °C 3.0 °F /  -16.1 °C 1016.8 in /  34428.8 hPa NE 15.8 mph /  25.4 km/h 28.8 mph /  46.3 km/h 90 % 0.0 in /  0 mm
03:22 4.0 °F /  -15.6 °C 3.0 °F /  -16.1 °C 1016.8 in /  34428.8 hPa NNE 14.0 mph /  22.5 km/h 28.8 mph /  46.3 km/h 91 % 0.0 in /  0 mm
03:23 4.0 °F /  -15.6 °C 3.0 °F /  -16.1 °C 1016.8 in /  34428.8 hPa NE 23.3 mph /  37.5 km/h 28.8 mph /  46.3 km/h 91 % 0.0 in /  0 mm
03:28 3.9 °F /  -15.6 °C 3.0 °F /  -16.1 °C 1016.8 in /  34428.8 hPa NNE 19.8 mph /  31.9 km/h 24.5 mph /  39.4 km/h 92 % 0.0 in /  0 mm
03:33 3.9 °F /  -15.6 °C 3.0 °F /  -16.1 °C 1016.8 in /  34428.8 hPa NNW 19.8 mph /  31.9 km/h 28.0 mph /  45.1 km/h 93 % 0.0 in /  0 mm
03:39 3.8 °F /  -15.7 °C 3.0 °F /  -16.1 °C 1016.8 in /  34428.8 hPa NNE 13.7 mph /  22 km/h 28.0 mph /  45.1 km/h 93 % 0.0 in /  0 mm
03:43 3.7 °F /  -15.7 °C 3.0 °F /  -16.1 °C 1016.8 in /  34428.8 hPa NE 12.2 mph /  19.6 km/h 21.6 mph /  34.8 km/h 94 % 0.0 in /  0 mm
03:48 3.7 °F /  -15.7 °C 3.0 °F /  -16.1 °C 1016.8 in /  34428.8 hPa NNE 13.7 mph /  22 km/h 21.2 mph /  34.1 km/h 94 % 0.0 in /  0 mm
03:50 3.7 °F /  -15.7 °C 3.0 °F /  -16.1 °C 1016.8 in /  34428.8 hPa NNE 10.5 mph /  16.9 km/h 21.6 mph /  34.8 km/h 94 % 0.0 in /  0 mm
03:55 3.7 °F /  -15.7 °C 3.0 °F /  -16.1 °C 1016.8 in /  34428.8 hPa NNE 13.0 mph /  20.9 km/h 21.6 mph /  34.8 km/h 94 % 0.0 in /  0 mm
04:01 3.7 °F /  -15.7 °C 3.0 °F /  -16.1 °C 1016.8 in /  34428.8 hPa NE 15.8 mph /  25.4 km/h 21.6 mph /  34.8 km/h 95 % 0.0 in /  0 mm
04:03 3.7 °F /  -15.7 °C 3.0 °F /  -16.1 °C 1016.8 in /  34428.8 hPa NE 21.2 mph /  34.1 km/h 21.2 mph /  34.1 km/h 95 % 0.0 in /  0 mm
04:08 3.7 °F /  -15.7 °C 3.0 °F /  -16.1 °C 1016.8 in /  34428.8 hPa NNE 16.3 mph /  26.2 km/h 23.3 mph /  37.5 km/h 94 % 0.0 in /  0 mm
04:13 3.6 °F /  -15.8 °C 3.0 °F /  -16.1 °C 1016.8 in /  34428.8 hPa NE 15.8 mph /  25.4 km/h 23.3 mph /  37.5 km/h 94 % 0.0 in /  0 mm
04:18 3.6 °F /  -15.8 °C 3.0 °F /  -16.1 °C 1016.8 in /  34428.8 hPa NE 13.7 mph /  22 km/h 21.2 mph /  34.1 km/h 94 % 0.0 in /  0 mm
04:24 3.6 °F /  -15.8 °C 3.0 °F /  -16.1 °C 1016.8 in /  34428.8 hPa NNE 20.1 mph /  32.3 km/h 21.2 mph /  34.1 km/h 94 % 0.0 in /  0 mm
04:29 3.6 °F /  -15.8 °C 3.0 °F /  -16.1 °C 1018.2 in /  34476.3 hPa NNE 20.6 mph /  33.2 km/h 20.6 mph /  33.2 km/h 94 % 0.0 in /  0 mm
04:35 3.7 °F /  -15.7 °C 3.0 °F /  -16.1 °C 1018.2 in /  34476.3 hPa NE 20.1 mph /  32.3 km/h 23.0 mph /  37 km/h 93 % 0.0 in /  0 mm
04:44 3.7 °F /  -15.7 °C 3.0 °F /  -16.1 °C 1016.8 in /  34428.8 hPa NE 17.7 mph /  28.5 km/h 23.3 mph /  37.5 km/h 93 % 0.0 in /  0 mm
04:49 3.7 °F /  -15.7 °C 3.0 °F /  -16.1 °C 1016.8 in /  34428.8 hPa NE 21.9 mph /  35.2 km/h 25.9 mph /  41.7 km/h 93 % 0.0 in /  0 mm
04:54 3.7 °F /  -15.7 °C 3.0 °F /  -16.1 °C 1016.8 in /  34428.8 hPa NNE 21.9 mph /  35.2 km/h 25.9 mph /  41.7 km/h 92 % 0.0 in /  0 mm
04:59 3.7 °F /  -15.7 °C 3.0 °F /  -16.1 °C 1016.8 in /  34428.8 hPa NE 18.0 mph /  29 km/h 30.9 mph /  49.7 km/h 91 % 0.0 in /  0 mm
05:04 3.8 °F /  -15.7 °C 3.0 °F /  -16.1 °C 1016.8 in /  34428.8 hPa NE 16.6 mph /  26.7 km/h 30.9 mph /  49.7 km/h 91 % 0.0 in /  0 mm
05:06 3.7 °F /  -15.7 °C 3.0 °F /  -16.1 °C 1016.8 in /  34428.8 hPa NE 22.7 mph /  36.5 km/h 30.9 mph /  49.7 km/h 91 % 0.0 in /  0 mm
05:11 3.7 °F /  -15.7 °C 3.0 °F /  -16.1 °C 1018.2 in /  34476.3 hPa ENE 21.6 mph /  34.8 km/h 32.0 mph /  51.5 km/h 91 % 0.0 in /  0 mm
05:12 3.7 °F /  -15.7 °C 3.0 °F /  -16.1 °C 1018.2 in /  34476.3 hPa ENE 16.9 mph /  27.2 km/h 32.0 mph /  51.5 km/h 91 % 0.0 in /  0 mm
05:17 3.7 °F /  -15.7 °C 3.0 °F /  -16.1 °C 1018.2 in /  34476.3 hPa NE 16.6 mph /  26.7 km/h 29.9 mph /  48.1 km/h 91 % 0.0 in /  0 mm
05:22 3.7 °F /  -15.7 °C 3.0 °F /  -16.1 °C 1018.2 in /  34476.3 hPa NNE 16.9 mph /  27.2 km/h 29.9 mph /  48.1 km/h 91 % 0.0 in /  0 mm
05:27 3.6 °F /  -15.8 °C 3.0 °F /  -16.1 °C 1018.2 in /  34476.3 hPa NNE 24.8 mph /  39.9 km/h 28.0 mph /  45.1 km/h 92 % 0.0 in /  0 mm
05:32 3.5 °F /  -15.8 °C 3.0 °F /  -16.1 °C 1018.2 in /  34476.3 hPa NNE 15.8 mph /  25.4 km/h 31.4 mph /  50.5 km/h 92 % 0.0 in /  0 mm
05:33 3.5 °F /  -15.8 °C 3.0 °F /  -16.1 °C 1018.2 in /  34476.3 hPa NE 17.2 mph /  27.7 km/h 31.4 mph /  50.5 km/h 92 % 0.0 in /  0 mm
05:34 3.4 °F /  -15.9 °C 2.0 °F /  -16.7 °C 1018.2 in /  34476.3 hPa NE 17.7 mph /  28.5 km/h 31.4 mph /  50.5 km/h 92 % 0.0 in /  0 mm
05:39 3.4 °F /  -15.9 °C 3.0 °F /  -16.1 °C 1018.2 in /  34476.3 hPa NNE 15.8 mph /  25.4 km/h 31.4 mph /  50.5 km/h 93 % 0.0 in /  0 mm
05:45 3.3 °F /  -15.9 °C 3.0 °F /  -16.1 °C 1018.2 in /  34476.3 hPa NE 10.1 mph /  16.3 km/h 25.6 mph /  41.2 km/h 93 % 0.0 in /  0 mm
05:50 3.3 °F /  -15.9 °C 3.0 °F /  -16.1 °C 1018.2 in /  34476.3 hPa NE 16.9 mph /  27.2 km/h 29.1 mph /  46.8 km/h 93 % 0.0 in /  0 mm
05:52 3.3 °F /  -15.9 °C 3.0 °F /  -16.1 °C 1018.2 in /  34476.3 hPa NE 25.3 mph /  40.7 km/h 29.1 mph /  46.8 km/h 94 % 0.0 in /  0 mm
05:57 3.3 °F /  -15.9 °C 3.0 °F /  -16.1 °C 1018.2 in /  34476.3 hPa NE 17.7 mph /  28.5 km/h 35.6 mph /  57.3 km/h 94 % 0.0 in /  0 mm
06:02 3.3 °F /  -15.9 °C 3.0 °F /  -16.1 °C 1018.2 in /  34476.3 hPa NE 25.3 mph /  40.7 km/h 35.6 mph /  57.3 km/h 94 % 0.0 in /  0 mm
06:07 3.4 °F /  -15.9 °C 3.0 °F /  -16.1 °C 1018.2 in /  34476.3 hPa NE 36.4 mph /  58.6 km/h 36.4 mph /  58.6 km/h 94 % 0.0 in /  0 mm
06:13 3.4 °F /  -15.9 °C 3.0 °F /  -16.1 °C 1018.2 in /  34476.3 hPa NE 19.8 mph /  31.9 km/h 36.4 mph /  58.6 km/h 94 % 0.0 in /  0 mm
06:18 3.4 °F /  -15.9 °C 3.0 °F /  -16.1 °C 1018.2 in /  34476.3 hPa NNE 29.9 mph /  48.1 km/h 32.0 mph /  51.5 km/h 94 % 0.0 in /  0 mm
06:23 3.3 °F /  -15.9 °C 3.0 °F /  -16.1 °C 1018.2 in /  34476.3 hPa NE 20.6 mph /  33.2 km/h 35.6 mph /  57.3 km/h 94 % 0.0 in /  0 mm
06:29 3.3 °F /  -15.9 °C 3.0 °F /  -16.1 °C 1018.2 in /  34476.3 hPa NE 29.9 mph /  48.1 km/h 41.4 mph /  66.6 km/h 94 % 0.0 in /  0 mm
06:34 3.3 °F /  -15.9 °C 3.0 °F /  -16.1 °C 1018.2 in /  34476.3 hPa NE 27.0 mph /  43.5 km/h 41.4 mph /  66.6 km/h 94 % 0.0 in /  0 mm
06:39 3.4 °F /  -15.9 °C 3.0 °F /  -16.1 °C 1018.2 in /  34476.3 hPa NE 20.1 mph /  32.3 km/h 38.1 mph /  61.3 km/h 94 % 0.0 in /  0 mm
06:44 3.3 °F /  -15.9 °C 3.0 °F /  -16.1 °C 1018.2 in /  34476.3 hPa NE 30.9 mph /  49.7 km/h 37.0 mph /  59.5 km/h 94 % 0.0 in /  0 mm
06:50 3.3 °F /  -15.9 °C 3.0 °F /  -16.1 °C 1018.2 in /  34476.3 hPa NNE 24.5 mph /  39.4 km/h 36.0 mph /  57.9 km/h 94 % 0.0 in /  0 mm
06:51 3.3 °F /  -15.9 °C 3.0 °F /  -16.1 °C 1018.2 in /  34476.3 hPa NE 22.4 mph /  36 km/h 36.0 mph /  57.9 km/h 94 % 0.0 in /  0 mm
06:56 3.4 °F /  -15.9 °C 3.0 °F /  -16.1 °C 1018.8 in /  34496.6 hPa NE 16.6 mph /  26.7 km/h 32.0 mph /  51.5 km/h 94 % 0.0 in /  0 mm
07:02 3.4 °F /  -15.9 °C 3.0 °F /  -16.1 °C 1018.8 in /  34496.6 hPa NE 31.7 mph /  51 km/h 31.7 mph /  51 km/h 94 % 0.0 in /  0 mm
07:07 3.4 °F /  -15.9 °C 3.0 °F /  -16.1 °C 1018.8 in /  34496.6 hPa NE 24.8 mph /  39.9 km/h 31.7 mph /  51 km/h 94 % 0.0 in /  0 mm
07:12 3.4 °F /  -15.9 °C 3.0 °F /  -16.1 °C 1018.8 in /  34496.6 hPa NE 27.7 mph /  44.6 km/h 32.0 mph /  51.5 km/h 95 % 0.0 in /  0 mm
07:16 3.4 °F /  -15.9 °C 3.0 °F /  -16.1 °C 1018.8 in /  34496.6 hPa ENE 16.6 mph /  26.7 km/h 32.0 mph /  51.5 km/h 95 % 0.0 in /  0 mm
07:21 3.4 °F /  -15.9 °C 3.0 °F /  -16.1 °C 1018.8 in /  34496.6 hPa NE 21.6 mph /  34.8 km/h 31.7 mph /  51 km/h 95 % 0.0 in /  0 mm
07:32 3.5 °F /  -15.8 °C 3.0 °F /  -16.1 °C 1018.2 in /  34476.3 hPa NE 20.6 mph /  33.2 km/h 37.5 mph /  60.3 km/h 94 % 0.0 in /  0 mm
07:37 3.5 °F /  -15.8 °C 3.0 °F /  -16.1 °C 1018.2 in /  34476.3 hPa NE 23.8 mph /  38.3 km/h 37.5 mph /  60.3 km/h 94 % 0.0 in /  0 mm
07:42 3.5 °F /  -15.8 °C 3.0 °F /  -16.1 °C 1018.8 in /  34496.6 hPa NE 15.8 mph /  25.4 km/h 32.0 mph /  51.5 km/h 95 % 0.0 in /  0 mm
07:44 3.5 °F /  -15.8 °C 3.0 °F /  -16.1 °C 1018.8 in /  34496.6 hPa ENE 21.6 mph /  34.8 km/h 32.0 mph /  51.5 km/h 95 % 0.0 in /  0 mm
07:49 3.6 °F /  -15.8 °C 3.0 °F /  -16.1 °C 1018.8 in /  34496.6 hPa NE 19.8 mph /  31.9 km/h 32.0 mph /  51.5 km/h 94 % 0.0 in /  0 mm
07:54 3.6 °F /  -15.8 °C 3.0 °F /  -16.1 °C 1018.8 in /  34496.6 hPa NE 24.5 mph /  39.4 km/h 33.5 mph /  53.9 km/h 94 % 0.0 in /  0 mm
07:59 3.6 °F /  -15.8 °C 3.0 °F /  -16.1 °C 1019.9 in /  34533.8 hPa NE 20.9 mph /  33.6 km/h 33.5 mph /  53.9 km/h 94 % 0.0 in /  0 mm
08:05 3.6 °F /  -15.8 °C 3.0 °F /  -16.1 °C 1019.9 in /  34533.8 hPa ENE 20.1 mph /  32.3 km/h 31.4 mph /  50.5 km/h 94 % 0.0 in /  0 mm
08:10 3.6 °F /  -15.8 °C 3.0 °F /  -16.1 °C 1019.9 in /  34533.8 hPa North 20.6 mph /  33.2 km/h 38.1 mph /  61.3 km/h 94 % 0.0 in /  0 mm
08:11 3.6 °F /  -15.8 °C 3.0 °F /  -16.1 °C 1019.9 in /  34533.8 hPa NNE 28.0 mph /  45.1 km/h 38.1 mph /  61.3 km/h 94 % 0.0 in /  0 mm
08:16 3.6 °F /  -15.8 °C 3.0 °F /  -16.1 °C 1019.9 in /  34533.8 hPa NE 20.1 mph /  32.3 km/h 38.1 mph /  61.3 km/h 94 % 0.0 in /  0 mm
08:21 3.6 °F /  -15.8 °C 3.0 °F /  -16.1 °C 1019.9 in /  34533.8 hPa NE 20.1 mph /  32.3 km/h 31.7 mph /  51 km/h 94 % 0.0 in /  0 mm
08:26 3.6 °F /  -15.8 °C 3.0 °F /  -16.1 °C 1019.9 in /  34533.8 hPa NNE 17.2 mph /  27.7 km/h 28.0 mph /  45.1 km/h 94 % 0.0 in /  0 mm
08:31 3.6 °F /  -15.8 °C 3.0 °F /  -16.1 °C 1020.9 in /  34567.7 hPa ENE 20.1 mph /  32.3 km/h 28.0 mph /  45.1 km/h 94 % 0.0 in /  0 mm
08:36 3.6 °F /  -15.8 °C 3.0 °F /  -16.1 °C 1020.9 in /  34567.7 hPa NE 28.8 mph /  46.3 km/h 35.6 mph /  57.3 km/h 94 % 0.0 in /  0 mm
08:41 3.6 °F /  -15.8 °C 3.0 °F /  -16.1 °C 1020.9 in /  34567.7 hPa NE 24.5 mph /  39.4 km/h 36.4 mph /  58.6 km/h 93 % 0.0 in /  0 mm
08:46 3.6 °F /  -15.8 °C 3.0 °F /  -16.1 °C 1020.9 in /  34567.7 hPa NE 16.3 mph /  26.2 km/h 36.4 mph /  58.6 km/h 93 % 0.0 in /  0 mm
08:50 3.6 °F /  -15.8 °C 3.0 °F /  -16.1 °C 1020.9 in /  34567.7 hPa ENE 28.5 mph /  45.9 km/h 36.4 mph /  58.6 km/h 93 % 0.0 in /  0 mm
08:55 3.6 °F /  -15.8 °C 3.0 °F /  -16.1 °C 1020.9 in /  34567.7 hPa ENE 20.9 mph /  33.6 km/h 32.8 mph /  52.8 km/h 93 % 0.0 in /  0 mm
09:00 3.6 °F /  -15.8 °C 3.0 °F /  -16.1 °C 1020.9 in /  34567.7 hPa ENE 20.1 mph /  32.3 km/h 32.8 mph /  52.8 km/h 93 % 0.0 in /  0 mm
09:05 3.6 °F /  -15.8 °C 3.0 °F /  -16.1 °C 1020.9 in /  34567.7 hPa NE 16.6 mph /  26.7 km/h 28.8 mph /  46.3 km/h 93 % 0.0 in /  0 mm
09:11 3.6 °F /  -15.8 °C 3.0 °F /  -16.1 °C 1020.9 in /  34567.7 hPa NE 18.3 mph /  29.5 km/h 27.7 mph /  44.6 km/h 93 % 0.0 in /  0 mm
09:16 3.6 °F /  -15.8 °C 3.0 °F /  -16.1 °C 1020.9 in /  34567.7 hPa East 16.3 mph /  26.2 km/h 23.8 mph /  38.3 km/h 93 % 0.0 in /  0 mm
09:21 3.6 °F /  -15.8 °C 3.0 °F /  -16.1 °C 1020.9 in /  34567.7 hPa NNE 25.6 mph /  41.2 km/h 25.6 mph /  41.2 km/h 93 % 0.0 in /  0 mm
09:24 3.6 °F /  -15.8 °C 3.0 °F /  -16.1 °C 1020.9 in /  34567.7 hPa NE 20.9 mph /  33.6 km/h 27.7 mph /  44.6 km/h 93 % 0.0 in /  0 mm
09:29 3.6 °F /  -15.8 °C 3.0 °F /  -16.1 °C 1020.9 in /  34567.7 hPa NE 17.7 mph /  28.5 km/h 28.5 mph /  45.9 km/h 93 % 0.0 in /  0 mm
09:32 3.5 °F /  -15.8 °C 3.0 °F /  -16.1 °C 1020.9 in /  34567.7 hPa NE 28.5 mph /  45.9 km/h 28.5 mph /  45.9 km/h 92 % 0.0 in /  0 mm
09:34 3.5 °F /  -15.8 °C 3.0 °F /  -16.1 °C 1020.9 in /  34567.7 hPa NE 20.6 mph /  33.2 km/h 31.4 mph /  50.5 km/h 92 % 0.0 in /  0 mm
09:39 3.5 °F /  -15.8 °C 3.0 °F /  -16.1 °C 1020.9 in /  34567.7 hPa NE 21.2 mph /  34.1 km/h 36.7 mph /  59.1 km/h 91 % 0.0 in /  0 mm
09:44 3.5 °F /  -15.8 °C 3.0 °F /  -16.1 °C 1021.9 in /  34601.5 hPa NE 22.7 mph /  36.5 km/h 36.7 mph /  59.1 km/h 91 % 0.0 in /  0 mm
09:49 3.5 °F /  -15.8 °C 3.0 °F /  -16.1 °C 1021.9 in /  34601.5 hPa NE 22.7 mph /  36.5 km/h 29.9 mph /  48.1 km/h 91 % 0.0 in /  0 mm
10:00 3.5 °F /  -15.8 °C 2.0 °F /  -16.7 °C 1021.9 in /  34601.5 hPa ENE 20.6 mph /  33.2 km/h 37.5 mph /  60.3 km/h 90 % 0.0 in /  0 mm
10:02 3.5 °F /  -15.8 °C 3.0 °F /  -16.1 °C 1021.9 in /  34601.5 hPa ENE 18.0 mph /  29 km/h 37.5 mph /  60.3 km/h 91 % 0.0 in /  0 mm
10:07 3.5 °F /  -15.8 °C 3.0 °F /  -16.1 °C 1021.9 in /  34601.5 hPa NE 22.4 mph /  36 km/h 37.0 mph /  59.5 km/h 91 % 0.0 in /  0 mm
10:12 3.6 °F /  -15.8 °C 3.0 °F /  -16.1 °C 1021.9 in /  34601.5 hPa NE 16.9 mph /  27.2 km/h 30.6 mph /  49.2 km/h 92 % 0.0 in /  0 mm
10:17 3.6 °F /  -15.8 °C 3.0 °F /  -16.1 °C 1021.9 in /  34601.5 hPa NE 32.8 mph /  52.8 km/h 32.8 mph /  52.8 km/h 91 % 0.0 in /  0 mm
10:22 3.6 °F /  -15.8 °C 3.0 °F /  -16.1 °C 1021.9 in /  34601.5 hPa ENE 28.0 mph /  45.1 km/h 32.8 mph /  52.8 km/h 91 % 0.0 in /  0 mm
10:24 3.6 °F /  -15.8 °C 2.0 °F /  -16.7 °C 1021.9 in /  34601.5 hPa NE 22.7 mph /  36.5 km/h 32.8 mph /  52.8 km/h 90 % 0.0 in /  0 mm
10:29 3.6 °F /  -15.8 °C 3.0 °F /  -16.1 °C 1021.9 in /  34601.5 hPa NNE 23.8 mph /  38.3 km/h 31.4 mph /  50.5 km/h 91 % 0.0 in /  0 mm
10:32 3.6 °F /  -15.8 °C 2.0 °F /  -16.7 °C 1021.9 in /  34601.5 hPa NE 20.9 mph /  33.6 km/h 31.7 mph /  51 km/h 90 % 0.0 in /  0 mm
10:37 3.6 °F /  -15.8 °C 2.0 °F /  -16.7 °C 1021.9 in /  34601.5 hPa NE 17.7 mph /  28.5 km/h 36.0 mph /  57.9 km/h 89 % 0.0 in /  0 mm
10:42 3.6 °F /  -15.8 °C 2.0 °F /  -16.7 °C 1022.9 in /  34635.4 hPa NE 21.2 mph /  34.1 km/h 36.0 mph /  57.9 km/h 90 % 0.0 in /  0 mm
10:45 3.6 °F /  -15.8 °C 2.0 °F /  -16.7 °C 1022.9 in /  34635.4 hPa NE 24.8 mph /  39.9 km/h 36.0 mph /  57.9 km/h 89 % 0.0 in /  0 mm
10:50 3.6 °F /  -15.8 °C 2.0 °F /  -16.7 °C 1022.9 in /  34635.4 hPa ENE 27.7 mph /  44.6 km/h 34.6 mph /  55.7 km/h 89 % 0.0 in /  0 mm
10:55 3.6 °F /  -15.8 °C 2.0 °F /  -16.7 °C 1022.9 in /  34635.4 hPa NE 20.6 mph /  33.2 km/h 31.7 mph /  51 km/h 89 % 0.0 in /  0 mm
11:00 3.6 °F /  -15.8 °C 2.0 °F /  -16.7 °C 1022.9 in /  34635.4 hPa NE 27.4 mph /  44.1 km/h 29.9 mph /  48.1 km/h 90 % 0.0 in /  0 mm
11:10 3.6 °F /  -15.8 °C 2.0 °F /  -16.7 °C 1022.9 in /  34635.4 hPa ENE 20.6 mph /  33.2 km/h 36.0 mph /  57.9 km/h 90 % 0.0 in /  0 mm
11:15 3.6 °F /  -15.8 °C 2.0 °F /  -16.7 °C 1022.9 in /  34635.4 hPa ENE 21.2 mph /  34.1 km/h 36.0 mph /  57.9 km/h 90 % 0.0 in /  0 mm
11:20 3.6 °F /  -15.8 °C 2.0 °F /  -16.7 °C 1022.9 in /  34635.4 hPa NE 16.6 mph /  26.7 km/h 34.6 mph /  55.7 km/h 89 % 0.0 in /  0 mm
11:22 3.6 °F /  -15.8 °C 2.0 °F /  -16.7 °C 1022.9 in /  34635.4 hPa NE 20.6 mph /  33.2 km/h 32.0 mph /  51.5 km/h 89 % 0.0 in /  0 mm
11:26 3.6 °F /  -15.8 °C 2.0 °F /  -16.7 °C 1022.9 in /  34635.4 hPa NE 17.2 mph /  27.7 km/h 32.8 mph /  52.8 km/h 89 % 0.0 in /  0 mm
11:27 3.6 °F /  -15.8 °C 2.0 °F /  -16.7 °C 1022.9 in /  34635.4 hPa NE 21.2 mph /  34.1 km/h 32.8 mph /  52.8 km/h 89 % 0.0 in /  0 mm
11:32 3.6 °F /  -15.8 °C 2.0 °F /  -16.7 °C 1022.9 in /  34635.4 hPa NE 20.1 mph /  32.3 km/h 34.3 mph /  55.2 km/h 89 % 0.0 in /  0 mm
11:34 3.6 °F /  -15.8 °C 2.0 °F /  -16.7 °C 1022.9 in /  34635.4 hPa ENE 18.0 mph /  29 km/h 34.3 mph /  55.2 km/h 89 % 0.0 in /  0 mm
11:39 3.6 °F /  -15.8 °C 2.0 °F /  -16.7 °C 1022.9 in /  34635.4 hPa ENE 20.9 mph /  33.6 km/h 29.9 mph /  48.1 km/h 89 % 0.0 in /  0 mm
11:41 3.7 °F /  -15.7 °C 2.0 °F /  -16.7 °C 1022.9 in /  34635.4 hPa NE 31.7 mph /  51 km/h 31.7 mph /  51 km/h 89 % 0.0 in /  0 mm
11:45 3.7 °F /  -15.7 °C 2.0 °F /  -16.7 °C 1022.9 in /  34635.4 hPa NE 28.0 mph /  45.1 km/h 31.7 mph /  51 km/h 89 % 0.0 in /  0 mm
11:50 3.7 °F /  -15.7 °C 2.0 °F /  -16.7 °C 1022.9 in /  34635.4 hPa NE 22.4 mph /  36 km/h 31.7 mph /  51 km/h 88 % 0.0 in /  0 mm
11:51 3.7 °F /  -15.7 °C 2.0 °F /  -16.7 °C 1022.9 in /  34635.4 hPa NE 23.8 mph /  38.3 km/h 31.7 mph /  51 km/h 88 % 0.0 in /  0 mm
11:55 3.7 °F /  -15.7 °C 2.0 °F /  -16.7 °C 1022.9 in /  34635.4 hPa NE 23.8 mph /  38.3 km/h 33.1 mph /  53.3 km/h 88 % 0.0 in /  0 mm
12:00 3.7 °F /  -15.7 °C 2.0 °F /  -16.7 °C 1022.9 in /  34635.4 hPa ENE 28.0 mph /  45.1 km/h 36.0 mph /  57.9 km/h 87 % 0.0 in /  0 mm
12:02 3.7 °F /  -15.7 °C 2.0 °F /  -16.7 °C 1022.9 in /  34635.4 hPa NNE 26.7 mph /  43 km/h 36.0 mph /  57.9 km/h 87 % 0.0 in /  0 mm
12:07 3.7 °F /  -15.7 °C 2.0 °F /  -16.7 °C 1022.9 in /  34635.4 hPa NE 27.7 mph /  44.6 km/h 36.0 mph /  57.9 km/h 88 % 0.0 in /  0 mm
12:12 3.7 °F /  -15.7 °C 2.0 °F /  -16.7 °C 1021.9 in /  34601.5 hPa NE 20.1 mph /  32.3 km/h 31.7 mph /  51 km/h 87 % 0.0 in /  0 mm
12:13 3.7 °F /  -15.7 °C 2.0 °F /  -16.7 °C 1021.9 in /  34601.5 hPa NE 24.5 mph /  39.4 km/h 31.7 mph /  51 km/h 87 % 0.0 in /  0 mm
12:19 3.7 °F /  -15.7 °C 2.0 °F /  -16.7 °C 1021.9 in /  34601.5 hPa NNE 17.2 mph /  27.7 km/h 27.7 mph /  44.6 km/h 87 % 0.0 in /  0 mm
12:20 3.7 °F /  -15.7 °C 2.0 °F /  -16.7 °C 1021.9 in /  34601.5 hPa NE 25.6 mph /  41.2 km/h 27.7 mph /  44.6 km/h 87 % 0.0 in /  0 mm
12:23 3.7 °F /  -15.7 °C 2.0 °F /  -16.7 °C 1021.9 in /  34601.5 hPa East 17.7 mph /  28.5 km/h 32.0 mph /  51.5 km/h 87 % 0.0 in /  0 mm
12:25 3.7 °F /  -15.7 °C 2.0 °F /  -16.7 °C 1021.9 in /  34601.5 hPa NE 32.0 mph /  51.5 km/h 32.0 mph /  51.5 km/h 87 % 0.0 in /  0 mm
12:30 3.7 °F /  -15.7 °C 2.0 °F /  -16.7 °C 1021.9 in /  34601.5 hPa East 27.7 mph /  44.6 km/h 34.3 mph /  55.2 km/h 87 % 0.0 in /  0 mm
12:37 3.7 °F /  -15.7 °C 2.0 °F /  -16.7 °C 1021.9 in /  34601.5 hPa NE 15.1 mph /  24.3 km/h 34.3 mph /  55.2 km/h 87 % 0.0 in /  0 mm
12:38 3.7 °F /  -15.7 °C 2.0 °F /  -16.7 °C 1021.9 in /  34601.5 hPa NE 25.6 mph /  41.2 km/h 30.2 mph /  48.6 km/h 88 % 0.0 in /  0 mm
12:44 3.7 °F /  -15.7 °C 2.0 °F /  -16.7 °C 1021.9 in /  34601.5 hPa NNE 12.6 mph /  20.3 km/h 30.9 mph /  49.7 km/h 87 % 0.0 in /  0 mm
12:48 3.6 °F /  -15.8 °C 2.0 °F /  -16.7 °C 1021.9 in /  34601.5 hPa East 23.8 mph /  38.3 km/h 30.9 mph /  49.7 km/h 87 % 0.0 in /  0 mm
12:53 3.6 °F /  -15.8 °C 2.0 °F /  -16.7 °C 1021.9 in /  34601.5 hPa NE 28.8 mph /  46.3 km/h 28.8 mph /  46.3 km/h 87 % 0.0 in /  0 mm
13:00 3.6 °F /  -15.8 °C 2.0 °F /  -16.7 °C 1021.9 in /  34601.5 hPa NE 22.7 mph /  36.5 km/h 28.8 mph /  46.3 km/h 87 % 0.0 in /  0 mm
13:01 3.6 °F /  -15.8 °C 2.0 °F /  -16.7 °C 1021.9 in /  34601.5 hPa ENE 20.6 mph /  33.2 km/h 28.8 mph /  46.3 km/h 87 % 0.0 in /  0 mm
13:06 3.4 °F /  -15.9 °C 1.0 °F /  -17.2 °C 1021.9 in /  34601.5 hPa NE 22.7 mph /  36.5 km/h 32.0 mph /  51.5 km/h 86 % 0.0 in /  0 mm
13:11 3.4 °F /  -15.9 °C 1.0 °F /  -17.2 °C 1021.9 in /  34601.5 hPa ENE 22.7 mph /  36.5 km/h 32.0 mph /  51.5 km/h 86 % 0.0 in /  0 mm
13:12 3.4 °F /  -15.9 °C 2.0 °F /  -16.7 °C 1021.9 in /  34601.5 hPa NE 14.0 mph /  22.5 km/h 32.0 mph /  51.5 km/h 87 % 0.0 in /  0 mm
13:17 3.4 °F /  -15.9 °C 2.0 °F /  -16.7 °C 1021.9 in /  34601.5 hPa ENE 17.2 mph /  27.7 km/h 31.7 mph /  51 km/h 87 % 0.0 in /  0 mm
13:21 3.4 °F /  -15.9 °C 2.0 °F /  -16.7 °C 1021.9 in /  34601.5 hPa NE 27.0 mph /  43.5 km/h 30.2 mph /  48.6 km/h 87 % 0.0 in /  0 mm
13:26 3.4 °F /  -15.9 °C 2.0 °F /  -16.7 °C 1021.9 in /  34601.5 hPa NE 27.4 mph /  44.1 km/h 32.0 mph /  51.5 km/h 87 % 0.0 in /  0 mm
13:31 3.4 °F /  -15.9 °C 2.0 °F /  -16.7 °C 1021.9 in /  34601.5 hPa NE 19.8 mph /  31.9 km/h 32.8 mph /  52.8 km/h 87 % 0.0 in /  0 mm
13:41 3.4 °F /  -15.9 °C 2.0 °F /  -16.7 °C 1021.9 in /  34601.5 hPa NNE 20.6 mph /  33.2 km/h 31.4 mph /  50.5 km/h 87 % 0.0 in /  0 mm
13:46 3.4 °F /  -15.9 °C 2.0 °F /  -16.7 °C 1021.9 in /  34601.5 hPa NE 21.9 mph /  35.2 km/h 28.0 mph /  45.1 km/h 87 % 0.0 in /  0 mm
13:50 3.4 °F /  -15.9 °C 2.0 °F /  -16.7 °C 1021.9 in /  34601.5 hPa NE 23.3 mph /  37.5 km/h 28.0 mph /  45.1 km/h 87 % 0.0 in /  0 mm
13:56 3.4 °F /  -15.9 °C 2.0 °F /  -16.7 °C 1020.9 in /  34567.7 hPa NE 28.0 mph /  45.1 km/h 28.0 mph /  45.1 km/h 87 % 0.0 in /  0 mm
13:58 3.4 °F /  -15.9 °C 2.0 °F /  -16.7 °C 1020.9 in /  34567.7 hPa NE 19.8 mph /  31.9 km/h 28.0 mph /  45.1 km/h 87 % 0.0 in /  0 mm
14:03 3.4 °F /  -15.9 °C 2.0 °F /  -16.7 °C 1020.9 in /  34567.7 hPa ENE 21.9 mph /  35.2 km/h 28.0 mph /  45.1 km/h 87 % 0.0 in /  0 mm
14:04 3.3 °F /  -15.9 °C 2.0 °F /  -16.7 °C 1020.9 in /  34567.7 hPa NE 25.6 mph /  41.2 km/h 36.0 mph /  57.9 km/h 87 % 0.0 in /  0 mm
14:09 3.3 °F /  -15.9 °C 2.0 °F /  -16.7 °C 1020.9 in /  34567.7 hPa NE 18.3 mph /  29.5 km/h 36.0 mph /  57.9 km/h 87 % 0.0 in /  0 mm
14:12 3.3 °F /  -15.9 °C 2.0 °F /  -16.7 °C 1020.9 in /  34567.7 hPa NE 20.9 mph /  33.6 km/h 36.0 mph /  57.9 km/h 87 % 0.0 in /  0 mm
14:17 3.2 °F /  -16 °C 2.0 °F /  -16.7 °C 1020.9 in /  34567.7 hPa NE 25.6 mph /  41.2 km/h 37.8 mph /  60.8 km/h 87 % 0.0 in /  0 mm
14:18 3.2 °F /  -16 °C 2.0 °F /  -16.7 °C 1020.9 in /  34567.7 hPa NE 28.0 mph /  45.1 km/h 37.8 mph /  60.8 km/h 87 % 0.0 in /  0 mm
14:23 3.2 °F /  -16 °C 2.0 °F /  -16.7 °C 1020.9 in /  34567.7 hPa NE 31.7 mph /  51 km/h 38.5 mph /  62 km/h 87 % 0.0 in /  0 mm
14:27 3.2 °F /  -16 °C 2.0 °F /  -16.7 °C 1020.9 in /  34567.7 hPa NE 16.6 mph /  26.7 km/h 38.5 mph /  62 km/h 87 % 0.0 in /  0 mm
14:32 3.2 °F /  -16 °C 2.0 °F /  -16.7 °C 1020.9 in /  34567.7 hPa ENE 24.5 mph /  39.4 km/h 36.7 mph /  59.1 km/h 87 % 0.0 in /  0 mm
14:33 3.2 °F /  -16 °C 2.0 °F /  -16.7 °C 1020.9 in /  34567.7 hPa NE 33.5 mph /  53.9 km/h 36.7 mph /  59.1 km/h 87 % 0.0 in /  0 mm
14:38 3.1 °F /  -16.1 °C 1.0 °F /  -17.2 °C 1020.9 in /  34567.7 hPa ENE 22.4 mph /  36 km/h 38.5 mph /  62 km/h 86 % 0.0 in /  0 mm
14:43 3.1 °F /  -16.1 °C 1.0 °F /  -17.2 °C 1020.9 in /  34567.7 hPa NE 28.5 mph /  45.9 km/h 37.5 mph /  60.3 km/h 86 % 0.0 in /  0 mm
14:48 3.2 °F /  -16 °C 1.0 °F /  -17.2 °C 1020.9 in /  34567.7 hPa ENE 19.8 mph /  31.9 km/h 37.5 mph /  60.3 km/h 86 % 0.0 in /  0 mm
14:53 3.2 °F /  -16 °C 1.0 °F /  -17.2 °C 1020.9 in /  34567.7 hPa ENE 24.5 mph /  39.4 km/h 28.8 mph /  46.3 km/h 86 % 0.0 in /  0 mm
14:58 3.3 °F /  -15.9 °C 1.0 °F /  -17.2 °C 1020.9 in /  34567.7 hPa ENE 17.7 mph /  28.5 km/h 32.0 mph /  51.5 km/h 86 % 0.0 in /  0 mm
15:02 3.3 °F /  -15.9 °C 1.0 °F /  -17.2 °C 1020.9 in /  34567.7 hPa NNE 24.8 mph /  39.9 km/h 32.0 mph /  51.5 km/h 86 % 0.0 in /  0 mm
15:07 3.2 °F /  -16 °C 1.0 °F /  -17.2 °C 1020.9 in /  34567.7 hPa NE 16.3 mph /  26.2 km/h 27.7 mph /  44.6 km/h 86 % 0.0 in /  0 mm
15:12 3.2 °F /  -16 °C 2.0 °F /  -16.7 °C 1021.9 in /  34601.5 hPa NE 28.0 mph /  45.1 km/h 28.8 mph /  46.3 km/h 87 % 0.0 in /  0 mm
15:14 3.2 °F /  -16 °C 1.0 °F /  -17.2 °C 1021.9 in /  34601.5 hPa NNE 16.6 mph /  26.7 km/h 28.8 mph /  46.3 km/h 86 % 0.0 in /  0 mm
15:19 3.2 °F /  -16 °C 2.0 °F /  -16.7 °C 1021.9 in /  34601.5 hPa NE 10.5 mph /  16.9 km/h 28.8 mph /  46.3 km/h 87 % 0.0 in /  0 mm
15:24 3.2 °F /  -16 °C 2.0 °F /  -16.7 °C 1021.9 in /  34601.5 hPa ENE 20.6 mph /  33.2 km/h 23.8 mph /  38.3 km/h 88 % 0.0 in /  0 mm
15:29 3.2 °F /  -16 °C 2.0 °F /  -16.7 °C 1021.9 in /  34601.5 hPa ENE 23.3 mph /  37.5 km/h 23.8 mph /  38.3 km/h 87 % 0.0 in /  0 mm
15:35 3.2 °F /  -16 °C 2.0 °F /  -16.7 °C 1021.9 in /  34601.5 hPa NE 14.8 mph /  23.8 km/h 26.7 mph /  43 km/h 87 % 0.0 in /  0 mm
15:40 3.3 °F /  -15.9 °C 2.0 °F /  -16.7 °C 1021.9 in /  34601.5 hPa NE 16.3 mph /  26.2 km/h 26.7 mph /  43 km/h 88 % 0.0 in /  0 mm
15:45 3.3 °F /  -15.9 °C 2.0 °F /  -16.7 °C 1021.9 in /  34601.5 hPa NE 13.7 mph /  22 km/h 17.7 mph /  28.5 km/h 88 % 0.0 in /  0 mm
15:50 3.3 °F /  -15.9 °C 2.0 °F /  -16.7 °C 1021.9 in /  34601.5 hPa NNE 13.7 mph /  22 km/h 19.5 mph /  31.4 km/h 88 % 0.0 in /  0 mm
15:53 3.3 °F /  -15.9 °C 2.0 °F /  -16.7 °C 1021.9 in /  34601.5 hPa NE 13.7 mph /  22 km/h 19.5 mph /  31.4 km/h 88 % 0.0 in /  0 mm
15:55 3.3 °F /  -15.9 °C 2.0 °F /  -16.7 °C 1021.9 in /  34601.5 hPa NE 11.9 mph /  19.2 km/h 19.5 mph /  31.4 km/h 88 % 0.0 in /  0 mm
16:00 3.3 °F /  -15.9 °C 2.0 °F /  -16.7 °C 1021.9 in /  34601.5 hPa NE 18.3 mph /  29.5 km/h 20.6 mph /  33.2 km/h 88 % 0.0 in /  0 mm
16:06 3.3 °F /  -15.9 °C 2.0 °F /  -16.7 °C 1021.9 in /  34601.5 hPa ENE 16.6 mph /  26.7 km/h 20.6 mph /  33.2 km/h 88 % 0.0 in /  0 mm
16:08 3.3 °F /  -15.9 °C 2.0 °F /  -16.7 °C 1021.9 in /  34601.5 hPa ENE 14.8 mph /  23.8 km/h 20.6 mph /  33.2 km/h 88 % 0.0 in /  0 mm
16:13 3.3 °F /  -15.9 °C 2.0 °F /  -16.7 °C 1021.9 in /  34601.5 hPa ENE 14.0 mph /  22.5 km/h 17.2 mph /  27.7 km/h 88 % 0.0 in /  0 mm
16:18 3.2 °F /  -16 °C 2.0 °F /  -16.7 °C 1021.9 in /  34601.5 hPa NE 23.3 mph /  37.5 km/h 24.5 mph /  39.4 km/h 88 % 0.0 in /  0 mm
16:24 3.2 °F /  -16 °C 2.0 °F /  -16.7 °C 1021.9 in /  34601.5 hPa NE 17.2 mph /  27.7 km/h 24.5 mph /  39.4 km/h 88 % 0.0 in /  0 mm
16:27 3.3 °F /  -15.9 °C 2.0 °F /  -16.7 °C 1021.9 in /  34601.5 hPa NE 16.6 mph /  26.7 km/h 23.3 mph /  37.5 km/h 88 % 0.0 in /  0 mm
16:32 3.3 °F /  -15.9 °C 2.0 °F /  -16.7 °C 1021.9 in /  34601.5 hPa NNE 16.9 mph /  27.2 km/h 23.3 mph /  37.5 km/h 88 % 0.0 in /  0 mm
16:37 3.3 °F /  -15.9 °C 2.0 °F /  -16.7 °C 1021.9 in /  34601.5 hPa NNE 16.6 mph /  26.7 km/h 28.5 mph /  45.9 km/h 87 % 0.0 in /  0 mm
16:42 3.3 °F /  -15.9 °C 2.0 °F /  -16.7 °C 1021.9 in /  34601.5 hPa NE 9.7 mph /  15.6 km/h 28.5 mph /  45.9 km/h 87 % 0.0 in /  0 mm
16:46 3.3 °F /  -15.9 °C 2.0 °F /  -16.7 °C 1021.9 in /  34601.5 hPa ENE 20.1 mph /  32.3 km/h 25.6 mph /  41.2 km/h 88 % 0.0 in /  0 mm
16:51 3.2 °F /  -16 °C 2.0 °F /  -16.7 °C 1021.9 in /  34601.5 hPa NE 13.0 mph /  20.9 km/h 25.3 mph /  40.7 km/h 88 % 0.0 in /  0 mm
16:56 3.2 °F /  -16 °C 2.0 °F /  -16.7 °C 1021.9 in /  34601.5 hPa NE 13.7 mph /  22 km/h 27.4 mph /  44.1 km/h 87 % 0.0 in /  0 mm
17:01 3.2 °F /  -16 °C 2.0 °F /  -16.7 °C 1021.9 in /  34601.5 hPa NE 11.6 mph /  18.7 km/h 27.4 mph /  44.1 km/h 87 % 0.0 in /  0 mm
17:05 3.1 °F /  -16.1 °C 1.0 °F /  -17.2 °C 1021.9 in /  34601.5 hPa ENE 12.2 mph /  19.6 km/h 21.2 mph /  34.1 km/h 87 % 0.0 in /  0 mm
17:11 3.1 °F /  -16.1 °C 1.0 °F /  -17.2 °C 1021.9 in /  34601.5 hPa NE 20.1 mph /  32.3 km/h 28.5 mph /  45.9 km/h 87 % 0.0 in /  0 mm
17:14 3.1 °F /  -16.1 °C 1.0 °F /  -17.2 °C 1021.9 in /  34601.5 hPa NE 16.6 mph /  26.7 km/h 28.5 mph /  45.9 km/h 87 % 0.0 in /  0 mm
17:19 3.1 °F /  -16.1 °C 1.0 °F /  -17.2 °C 1021.9 in /  34601.5 hPa NE 20.6 mph /  33.2 km/h 28.5 mph /  45.9 km/h 87 % 0.0 in /  0 mm
17:24 3.1 °F /  -16.1 °C 1.0 °F /  -17.2 °C 1021.9 in /  34601.5 hPa NE 16.9 mph /  27.2 km/h 25.9 mph /  41.7 km/h 87 % 0.0 in /  0 mm
17:25 3.1 °F /  -16.1 °C 1.0 °F /  -17.2 °C 1021.9 in /  34601.5 hPa ENE 17.2 mph /  27.7 km/h 25.9 mph /  41.7 km/h 87 % 0.0 in /  0 mm
17:30 3.1 °F /  -16.1 °C 1.0 °F /  -17.2 °C 1021.9 in /  34601.5 hPa ENE 17.2 mph /  27.7 km/h 26.2 mph /  42.2 km/h 87 % 0.0 in /  0 mm
17:35 3.1 °F /  -16.1 °C 1.0 °F /  -17.2 °C 1021.9 in /  34601.5 hPa NE 16.6 mph /  26.7 km/h 28.5 mph /  45.9 km/h 86 % 0.0 in /  0 mm
17:41 3.2 °F /  -16 °C 1.0 °F /  -17.2 °C 1021.9 in /  34601.5 hPa ENE 16.6 mph /  26.7 km/h 28.5 mph /  45.9 km/h 86 % 0.0 in /  0 mm
17:46 3.1 °F /  -16.1 °C 1.0 °F /  -17.2 °C 1021.9 in /  34601.5 hPa ENE 16.6 mph /  26.7 km/h 28.5 mph /  45.9 km/h 86 % 0.0 in /  0 mm
17:51 3.1 °F /  -16.1 °C 1.0 °F /  -17.2 °C 1021.9 in /  34601.5 hPa NNE 18.3 mph /  29.5 km/h 26.7 mph /  43 km/h 86 % 0.0 in /  0 mm
17:56 3.1 °F /  -16.1 °C 1.0 °F /  -17.2 °C 1021.9 in /  34601.5 hPa NE 19.8 mph /  31.9 km/h 30.2 mph /  48.6 km/h 85 % 0.0 in /  0 mm
18:01 3.1 °F /  -16.1 °C 1.0 °F /  -17.2 °C 1021.9 in /  34601.5 hPa NE 17.2 mph /  27.7 km/h 30.2 mph /  48.6 km/h 85 % 0.0 in /  0 mm
18:06 3.0 °F /  -16.1 °C 1.0 °F /  -17.2 °C 1021.9 in /  34601.5 hPa NE 16.9 mph /  27.2 km/h 28.5 mph /  45.9 km/h 85 % 0.0 in /  0 mm
18:11 3.0 °F /  -16.1 °C 1.0 °F /  -17.2 °C 1021.9 in /  34601.5 hPa NE 14.0 mph /  22.5 km/h 28.5 mph /  45.9 km/h 85 % 0.0 in /  0 mm
18:16 3.0 °F /  -16.1 °C 1.0 °F /  -17.2 °C 1021.9 in /  34601.5 hPa ENE 23.8 mph /  38.3 km/h 27.4 mph /  44.1 km/h 85 % 0.0 in /  0 mm
18:21 2.9 °F /  -16.2 °C 1.0 °F /  -17.2 °C 1021.9 in /  34601.5 hPa NE 19.8 mph /  31.9 km/h 27.4 mph /  44.1 km/h 85 % 0.0 in /  0 mm
18:25 2.8 °F /  -16.2 °C 1.0 °F /  -17.2 °C 1021.9 in /  34601.5 hPa NE 20.1 mph /  32.3 km/h 27.0 mph /  43.5 km/h 85 % 0.0 in /  0 mm
18:30 2.8 °F /  -16.2 °C 1.0 °F /  -17.2 °C 1021.9 in /  34601.5 hPa ENE 24.5 mph /  39.4 km/h 34.6 mph /  55.7 km/h 85 % 0.0 in /  0 mm
18:35 2.7 °F /  -16.3 °C 1.0 °F /  -17.2 °C 1021.9 in /  34601.5 hPa NNE 16.3 mph /  26.2 km/h 34.6 mph /  55.7 km/h 84 % 0.0 in /  0 mm
18:40 2.7 °F /  -16.3 °C 1.0 °F /  -17.2 °C 1021.9 in /  34601.5 hPa ENE 21.2 mph /  34.1 km/h 28.0 mph /  45.1 km/h 84 % 0.0 in /  0 mm
18:45 2.6 °F /  -16.3 °C 1.0 °F /  -17.2 °C 1021.9 in /  34601.5 hPa ENE 17.2 mph /  27.7 km/h 28.5 mph /  45.9 km/h 84 % 0.0 in /  0 mm
18:49 2.6 °F /  -16.3 °C 1.0 °F /  -17.2 °C 1021.9 in /  34601.5 hPa ENE 19.5 mph /  31.4 km/h 28.5 mph /  45.9 km/h 85 % 0.0 in /  0 mm
18:54 2.6 °F /  -16.3 °C 1.0 °F /  -17.2 °C 1021.9 in /  34601.5 hPa NE 21.6 mph /  34.8 km/h 27.7 mph /  44.6 km/h 84 % 0.0 in /  0 mm
18:59 2.6 °F /  -16.3 °C 1.0 °F /  -17.2 °C 1021.9 in /  34601.5 hPa NE 23.3 mph /  37.5 km/h 27.7 mph /  44.6 km/h 84 % 0.0 in /  0 mm
19:05 2.5 °F /  -16.4 °C 1.0 °F /  -17.2 °C 1021.9 in /  34601.5 hPa ENE 17.7 mph /  28.5 km/h 27.7 mph /  44.6 km/h 84 % 0.0 in /  0 mm
19:09 2.5 °F /  -16.4 °C 1.0 °F /  -17.2 °C 1021.9 in /  34601.5 hPa NE 16.3 mph /  26.2 km/h 28.5 mph /  45.9 km/h 84 % 0.0 in /  0 mm
19:14 2.5 °F /  -16.4 °C 1.0 °F /  -17.2 °C 1022.9 in /  34635.4 hPa NE 21.2 mph /  34.1 km/h 39.3 mph /  63.2 km/h 84 % 0.0 in /  0 mm
19:19 2.5 °F /  -16.4 °C 1.0 °F /  -17.2 °C 1022.9 in /  34635.4 hPa ENE 19.8 mph /  31.9 km/h 39.3 mph /  63.2 km/h 84 % 0.0 in /  0 mm
19:24 2.4 °F /  -16.4 °C 0.0 °F /  -17.8 °C 1022.9 in /  34635.4 hPa NE 14.8 mph /  23.8 km/h 32.3 mph /  52 km/h 84 % 0.0 in /  0 mm
19:29 2.4 °F /  -16.4 °C 0.0 °F /  -17.8 °C 1022.9 in /  34635.4 hPa NE 16.3 mph /  26.2 km/h 28.0 mph /  45.1 km/h 84 % 0.0 in /  0 mm
19:34 2.4 °F /  -16.4 °C 0.0 °F /  -17.8 °C 1022.9 in /  34635.4 hPa ENE 16.3 mph /  26.2 km/h 28.5 mph /  45.9 km/h 84 % 0.0 in /  0 mm
19:39 2.4 °F /  -16.4 °C 0.0 °F /  -17.8 °C 1022.9 in /  34635.4 hPa NE 15.1 mph /  24.3 km/h 31.4 mph /  50.5 km/h 84 % 0.0 in /  0 mm
19:44 2.4 °F /  -16.4 °C 0.0 °F /  -17.8 °C 1022.9 in /  34635.4 hPa ENE 13.0 mph /  20.9 km/h 31.4 mph /  50.5 km/h 84 % 0.0 in /  0 mm
19:49 2.3 °F /  -16.5 °C 0.0 °F /  -17.8 °C 1022.9 in /  34635.4 hPa ENE 20.6 mph /  33.2 km/h 26.7 mph /  43 km/h 84 % 0.0 in /  0 mm
19:54 2.3 °F /  -16.5 °C 0.0 °F /  -17.8 °C 1022.9 in /  34635.4 hPa ENE 19.8 mph /  31.9 km/h 27.4 mph /  44.1 km/h 83 % 0.0 in /  0 mm
19:57 2.3 °F /  -16.5 °C 0.0 °F /  -17.8 °C 1022.9 in /  34635.4 hPa ENE 15.4 mph /  24.8 km/h 27.4 mph /  44.1 km/h 84 % 0.0 in /  0 mm
20:02 2.2 °F /  -16.6 °C 0.0 °F /  -17.8 °C 1022.9 in /  34635.4 hPa ENE 16.3 mph /  26.2 km/h 23.8 mph /  38.3 km/h 84 % 0.0 in /  0 mm
20:07 2.2 °F /  -16.6 °C 0.0 °F /  -17.8 °C 1022.9 in /  34635.4 hPa NE 19.8 mph /  31.9 km/h 25.3 mph /  40.7 km/h 84 % 0.0 in /  0 mm
20:12 2.2 °F /  -16.6 °C 0.0 °F /  -17.8 °C 1022.9 in /  34635.4 hPa NE 16.9 mph /  27.2 km/h 25.6 mph /  41.2 km/h 84 % 0.0 in /  0 mm
20:17 2.2 °F /  -16.6 °C 0.0 °F /  -17.8 °C 1022.9 in /  34635.4 hPa ENE 11.9 mph /  19.2 km/h 25.6 mph /  41.2 km/h 84 % 0.0 in /  0 mm
20:23 2.1 °F /  -16.6 °C 0.0 °F /  -17.8 °C 1022.9 in /  34635.4 hPa ENE 16.6 mph /  26.7 km/h 24.5 mph /  39.4 km/h 84 % 0.0 in /  0 mm
20:24 2.1 °F /  -16.6 °C 0.0 °F /  -17.8 °C 1022.9 in /  34635.4 hPa NE 21.9 mph /  35.2 km/h 24.8 mph /  39.9 km/h 84 % 0.0 in /  0 mm
20:29 2.2 °F /  -16.6 °C 0.0 °F /  -17.8 °C 1021.9 in /  34601.5 hPa NE 20.1 mph /  32.3 km/h 31.7 mph /  51 km/h 84 % 0.0 in /  0 mm
20:35 2.2 °F /  -16.6 °C 0.0 °F /  -17.8 °C 1021.9 in /  34601.5 hPa NE 16.3 mph /  26.2 km/h 31.7 mph /  51 km/h 84 % 0.0 in /  0 mm
20:40 2.2 °F /  -16.6 °C 0.0 °F /  -17.8 °C 1021.9 in /  34601.5 hPa ENE 20.6 mph /  33.2 km/h 25.9 mph /  41.7 km/h 84 % 0.0 in /  0 mm
20:41 2.2 °F /  -16.6 °C 0.0 °F /  -17.8 °C 1022.9 in /  34635.4 hPa NE 17.7 mph /  28.5 km/h 25.9 mph /  41.7 km/h 84 % 0.0 in /  0 mm
20:46 2.1 °F /  -16.6 °C 0.0 °F /  -17.8 °C 1022.9 in /  34635.4 hPa NE 24.8 mph /  39.9 km/h 25.9 mph /  41.7 km/h 84 % 0.0 in /  0 mm
20:51 2.1 °F /  -16.6 °C 0.0 °F /  -17.8 °C 1022.9 in /  34635.4 hPa NE 16.9 mph /  27.2 km/h 24.8 mph /  39.9 km/h 84 % 0.0 in /  0 mm
20:56 2.1 °F /  -16.6 °C 0.0 °F /  -17.8 °C 1022.9 in /  34635.4 hPa East 21.2 mph /  34.1 km/h 26.7 mph /  43 km/h 84 % 0.0 in /  0 mm
21:01 2.1 °F /  -16.6 °C 0.0 °F /  -17.8 °C 1022.9 in /  34635.4 hPa NNE 16.9 mph /  27.2 km/h 26.7 mph /  43 km/h 85 % 0.0 in /  0 mm
21:04 2.1 °F /  -16.6 °C 0.0 °F /  -17.8 °C 1022.9 in /  34635.4 hPa ENE 12.6 mph /  20.3 km/h 26.7 mph /  43 km/h 85 % 0.0 in /  0 mm
21:09 2.1 °F /  -16.6 °C 0.0 °F /  -17.8 °C 1022.9 in /  34635.4 hPa NE 19.5 mph /  31.4 km/h 27.4 mph /  44.1 km/h 85 % 0.0 in /  0 mm
21:14 2.1 °F /  -16.6 °C 0.0 °F /  -17.8 °C 1022.9 in /  34635.4 hPa ENE 16.9 mph /  27.2 km/h 27.4 mph /  44.1 km/h 84 % 0.0 in /  0 mm
21:19 2.1 °F /  -16.6 °C 0.0 °F /  -17.8 °C 1022.9 in /  34635.4 hPa NE 16.9 mph /  27.2 km/h 26.2 mph /  42.2 km/h 84 % 0.0 in /  0 mm
21:24 2.1 °F /  -16.6 °C 0.0 °F /  -17.8 °C 1022.9 in /  34635.4 hPa ENE 16.9 mph /  27.2 km/h 26.2 mph /  42.2 km/h 85 % 0.0 in /  0 mm
21:29 2.1 °F /  -16.6 °C 0.0 °F /  -17.8 °C 1023.9 in /  34669.3 hPa ENE 15.4 mph /  24.8 km/h 21.2 mph /  34.1 km/h 85 % 0.0 in /  0 mm
21:35 2.1 °F /  -16.6 °C 0.0 °F /  -17.8 °C 1023.9 in /  34669.3 hPa ENE 17.2 mph /  27.7 km/h 24.8 mph /  39.9 km/h 85 % 0.0 in /  0 mm
21:40 2.1 °F /  -16.6 °C 0.0 °F /  -17.8 °C 1023.9 in /  34669.3 hPa ENE 17.2 mph /  27.7 km/h 24.8 mph /  39.9 km/h 85 % 0.0 in /  0 mm
21:45 2.1 °F /  -16.6 °C 0.0 °F /  -17.8 °C 1022.9 in /  34635.4 hPa NE 15.8 mph /  25.4 km/h 27.4 mph /  44.1 km/h 85 % 0.0 in /  0 mm
21:52 2.0 °F /  -16.7 °C 0.0 °F /  -17.8 °C 1022.9 in /  34635.4 hPa ENE 18.3 mph /  29.5 km/h 27.0 mph /  43.5 km/h 85 % 0.0 in /  0 mm
21:58 2.0 °F /  -16.7 °C 0.0 °F /  -17.8 °C 1022.9 in /  34635.4 hPa NE 16.9 mph /  27.2 km/h 33.5 mph /  53.9 km/h 86 % 0.0 in /  0 mm
22:03 2.0 °F /  -16.7 °C 0.0 °F /  -17.8 °C 1022.9 in /  34635.4 hPa NE 20.1 mph /  32.3 km/h 33.5 mph /  53.9 km/h 86 % 0.0 in /  0 mm
22:08 2.0 °F /  -16.7 °C 0.0 °F /  -17.8 °C 1022.9 in /  34635.4 hPa NE 15.8 mph /  25.4 km/h 21.9 mph /  35.2 km/h 86 % 0.0 in /  0 mm
22:13 2.0 °F /  -16.7 °C 0.0 °F /  -17.8 °C 1022.9 in /  34635.4 hPa NE 17.7 mph /  28.5 km/h 21.2 mph /  34.1 km/h 86 % 0.0 in /  0 mm
22:16 2.0 °F /  -16.7 °C 0.0 °F /  -17.8 °C 1022.9 in /  34635.4 hPa ENE 19.5 mph /  31.4 km/h 21.2 mph /  34.1 km/h 86 % 0.0 in /  0 mm
22:21 2.0 °F /  -16.7 °C 1.0 °F /  -17.2 °C 1022.9 in /  34635.4 hPa ENE 20.9 mph /  33.6 km/h 21.2 mph /  34.1 km/h 87 % 0.0 in /  0 mm
22:26 2.0 °F /  -16.7 °C 1.0 °F /  -17.2 °C 1022.9 in /  34635.4 hPa NE 21.2 mph /  34.1 km/h 23.8 mph /  38.3 km/h 87 % 0.0 in /  0 mm
22:30 2.0 °F /  -16.7 °C 1.0 °F /  -17.2 °C 1022.9 in /  34635.4 hPa NE 20.9 mph /  33.6 km/h 28.5 mph /  45.9 km/h 87 % 0.0 in /  0 mm
22:35 2.1 °F /  -16.6 °C 1.0 °F /  -17.2 °C 1022.9 in /  34635.4 hPa ENE 15.4 mph /  24.8 km/h 28.5 mph /  45.9 km/h 87 % 0.0 in /  0 mm
22:40 2.1 °F /  -16.6 °C 1.0 °F /  -17.2 °C 1022.9 in /  34635.4 hPa NE 13.0 mph /  20.9 km/h 24.5 mph /  39.4 km/h 87 % 0.0 in /  0 mm
22:50 2.1 °F /  -16.6 °C 1.0 °F /  -17.2 °C 1022.9 in /  34635.4 hPa NE 17.2 mph /  27.7 km/h 23.3 mph /  37.5 km/h 87 % 0.0 in /  0 mm
22:55 2.1 °F /  -16.6 °C 1.0 °F /  -17.2 °C 1022.9 in /  34635.4 hPa ENE 15.4 mph /  24.8 km/h 23.3 mph /  37.5 km/h 88 % 0.0 in /  0 mm
23:01 2.1 °F /  -16.6 °C 1.0 °F /  -17.2 °C 1022.9 in /  34635.4 hPa NE 16.3 mph /  26.2 km/h 23.3 mph /  37.5 km/h 88 % 0.0 in /  0 mm
23:06 2.1 °F /  -16.6 °C 1.0 °F /  -17.2 °C 1022.9 in /  34635.4 hPa NE 16.6 mph /  26.7 km/h 23.3 mph /  37.5 km/h 88 % 0.0 in /  0 mm
23:11 2.1 °F /  -16.6 °C 1.0 °F /  -17.2 °C 1022.9 in /  34635.4 hPa NE 18.0 mph /  29 km/h 23.8 mph /  38.3 km/h 88 % 0.0 in /  0 mm
23:16 2.1 °F /  -16.6 °C 1.0 °F /  -17.2 °C 1022.9 in /  34635.4 hPa ENE 14.0 mph /  22.5 km/h 23.8 mph /  38.3 km/h 88 % 0.0 in /  0 mm
23:20 2.2 °F /  -16.6 °C 1.0 °F /  -17.2 °C 1022.9 in /  34635.4 hPa NE 14.0 mph /  22.5 km/h 31.4 mph /  50.5 km/h 88 % 0.0 in /  0 mm
23:25 2.2 °F /  -16.6 °C 1.0 °F /  -17.2 °C 1022.9 in /  34635.4 hPa NE 13.7 mph /  22 km/h 31.4 mph /  50.5 km/h 88 % 0.0 in /  0 mm
23:31 2.2 °F /  -16.6 °C 1.0 °F /  -17.2 °C 1022.9 in /  34635.4 hPa NE 13.7 mph /  22 km/h 31.4 mph /  50.5 km/h 88 % 0.0 in /  0 mm
23:36 2.2 °F /  -16.6 °C 1.0 °F /  -17.2 °C 1022.9 in /  34635.4 hPa NE 13.7 mph /  22 km/h 31.4 mph /  50.5 km/h 88 % 0.0 in /  0 mm
23:38 2.2 °F /  -16.6 °C 1.0 °F /  -17.2 °C 1022.9 in /  34635.4 hPa NE 13.7 mph /  22 km/h 31.4 mph /  50.5 km/h 88 % 0.0 in /  0 mm
23:43 2.2 °F /  -16.6 °C 1.0 °F /  -17.2 °C 1022.9 in /  34635.4 hPa NE 13.7 mph /  22 km/h 31.4 mph /  50.5 km/h 88 % 0.0 in /  0 mm
23:48 2.2 °F /  -16.6 °C 1.0 °F /  -17.2 °C 1022.9 in /  34635.4 hPa NE 13.7 mph /  22 km/h 31.4 mph /  50.5 km/h 88 % 0.0 in /  0 mm
23:53 2.2 °F /  -16.6 °C 1.0 °F /  -17.2 °C 1022.9 in /  34635.4 hPa NE 13.7 mph /  22 km/h 31.4 mph /  50.5 km/h 88 % 0.0 in /  0 mm
23:58 2.2 °F /  -16.6 °C 1.0 °F /  -17.2 °C 1022.9 in /  34635.4 hPa NE 13.7 mph /  22 km/h 31.4 mph /  50.5 km/h 88 % 0.0 in /  0 mm
Le Gheer Warneton
Courtoisie de Weather Underground - 2.5 mb

Mise a jour : 17/02/2018 20:40:12
Généré par Cumulus 1.9.4 (1099)